createdAt,value
2022-12-26T00:00:27.439Z,52.16
2022-12-26T00:02:28.841Z,52.34
2022-12-26T00:04:52.281Z,52.52
2022-12-26T00:06:51.567Z,52.68
2022-12-26T00:08:52.873Z,52.64
2022-12-26T00:10:54.220Z,52.46
2022-12-26T00:12:55.531Z,52.56
2022-12-26T00:15:16.836Z,52.61
2022-12-26T00:17:18.115Z,52.60
2022-12-26T00:19:19.425Z,53.04
2022-12-26T00:21:20.990Z,52.80
2022-12-26T00:23:22.274Z,52.63
2022-12-26T00:25:23.569Z,52.85
2022-12-26T00:27:24.870Z,52.87
2022-12-26T00:29:26.188Z,53.35
2022-12-26T00:31:27.587Z,53.36
2022-12-26T00:33:28.908Z,53.13
2022-12-26T00:35:30.235Z,53.03
2022-12-26T00:37:31.540Z,53.32
2022-12-26T00:39:32.837Z,53.23
2022-12-26T00:41:34.204Z,53.48
2022-12-26T00:43:35.536Z,53.56
2022-12-26T00:45:36.832Z,53.44
2022-12-26T00:47:38.157Z,53.67
2022-12-26T00:50:13.323Z,53.39
2022-12-26T00:52:00.781Z,53.43
2022-12-26T00:54:02.122Z,53.53
2022-12-26T00:56:03.421Z,54.15
2022-12-26T00:58:04.779Z,53.83
2022-12-26T01:00:06.079Z,54.04
2022-12-26T01:02:27.418Z,53.65
2022-12-26T01:04:28.843Z,54.07
2022-12-26T01:06:30.146Z,54.24
2022-12-26T01:08:31.460Z,54.44
2022-12-26T01:10:32.815Z,54.13
2022-12-26T01:12:34.112Z,54.30
2022-12-26T01:14:35.415Z,54.50
2022-12-26T01:16:36.811Z,54.27
2022-12-26T01:18:38.226Z,54.79
2022-12-26T01:20:39.541Z,54.86
2022-12-26T01:22:40.866Z,54.81
2022-12-26T01:24:42.188Z,54.72
2022-12-26T01:26:43.559Z,54.80
2022-12-26T01:28:44.854Z,54.75
2022-12-26T01:30:46.160Z,55.07
2022-12-26T01:32:47.491Z,54.99
2022-12-26T01:34:48.839Z,55.12
2022-12-26T01:36:50.130Z,55.08
2022-12-26T01:38:51.551Z,55.33
2022-12-26T01:41:12.843Z,55.20
2022-12-26T01:43:14.164Z,55.48
2022-12-26T01:45:15.463Z,55.51
2022-12-26T01:47:16.762Z,55.60
2022-12-26T01:49:18.071Z,55.13
2022-12-26T01:51:19.404Z,55.53
2022-12-26T01:53:21.725Z,55.02
2022-12-26T01:55:23.031Z,55.19
2022-12-26T01:57:24.340Z,55.62
2022-12-26T01:59:25.678Z,55.17
2022-12-26T02:01:27.092Z,55.62
2022-12-26T02:03:47.023Z,55.55
2022-12-26T02:05:49.346Z,55.08
2022-12-26T02:07:50.687Z,55.19
2022-12-26T02:09:52.031Z,55.63
2022-12-26T02:12:34.683Z,55.47
2022-12-26T02:14:14.693Z,55.84
2022-12-26T02:16:16.030Z,55.56
2022-12-26T02:18:17.415Z,55.87
2022-12-26T02:20:18.774Z,55.47
2022-12-26T02:22:20.095Z,55.73
2022-12-26T02:24:21.432Z,55.74
2022-12-26T02:26:22.719Z,56.00
2022-12-26T02:28:24.133Z,56.08
2022-12-26T02:30:25.430Z,55.88
2022-12-26T02:32:26.879Z,55.87
2022-12-26T02:34:28.211Z,55.89
2022-12-26T02:36:29.659Z,56.40
2022-12-26T02:38:30.958Z,56.27
2022-12-26T02:40:32.252Z,56.79
2022-12-26T02:42:33.542Z,56.76
2022-12-26T02:44:53.363Z,56.71
2022-12-26T02:47:03.580Z,56.11
2022-12-26T02:49:04.871Z,55.82
2022-12-26T02:51:25.004Z,56.27
2022-12-26T02:53:44.871Z,56.63
2022-12-26T02:56:04.684Z,56.64
2022-12-26T02:58:24.442Z,56.18
2022-12-26T03:00:44.214Z,56.51
2022-12-26T03:03:04.184Z,56.45
2022-12-26T03:05:24.300Z,56.64
2022-12-26T03:07:48.704Z,56.04
2022-12-26T03:10:28.460Z,56.37
2022-12-26T03:12:48.132Z,56.26
2022-12-26T03:14:49.488Z,56.52
2022-12-26T03:17:09.528Z,56.59
2022-12-26T03:19:11.276Z,56.78
2022-12-26T03:21:12.605Z,56.75
2022-12-26T03:23:13.911Z,56.91
2022-12-26T03:25:34.111Z,57.47
2022-12-26T03:27:35.406Z,56.87
2022-12-26T03:29:55.207Z,57.01
2022-12-26T03:31:56.550Z,57.14
2022-12-26T03:34:16.424Z,57.40
2022-12-26T03:36:17.723Z,56.75
2022-12-26T03:38:19.038Z,56.91
2022-12-26T03:40:38.974Z,56.70
2022-12-26T03:42:58.764Z,56.97
2022-12-26T03:45:18.641Z,56.97
2022-12-26T03:47:38.565Z,57.22
2022-12-26T03:49:58.524Z,57.43
2022-12-26T03:52:18.480Z,57.54
2022-12-26T03:54:38.249Z,57.30
2022-12-26T03:56:58.088Z,57.49
2022-12-26T03:59:17.996Z,57.32
2022-12-26T04:01:38.236Z,57.45
2022-12-26T04:03:58.555Z,57.33
2022-12-26T04:06:18.768Z,57.27
2022-12-26T04:08:38.934Z,56.93
2022-12-26T04:10:58.803Z,56.79
2022-12-26T04:13:18.789Z,57.12
2022-12-26T04:15:38.783Z,56.50
2022-12-26T04:17:59.145Z,56.40
2022-12-26T04:20:00.470Z,56.76
2022-12-26T04:22:20.691Z,56.65
2022-12-26T04:24:40.578Z,56.32
2022-12-26T04:27:00.605Z,56.69
2022-12-26T04:29:20.413Z,56.03
2022-12-26T04:31:40.536Z,56.42
2022-12-26T04:34:00.833Z,56.27
2022-12-26T04:36:20.616Z,56.20
2022-12-26T04:38:40.494Z,56.48
2022-12-26T04:41:00.216Z,56.53
2022-12-26T04:43:50.501Z,56.34
2022-12-26T04:45:41.231Z,56.50
2022-12-26T04:48:02.483Z,55.82
2022-12-26T04:50:12.773Z,55.21
2022-12-26T04:52:14.597Z,55.83
2022-12-26T04:54:15.887Z,55.93
2022-12-26T04:56:18.775Z,55.69
2022-12-26T04:58:20.834Z,55.82
2022-12-26T05:00:24.083Z,56.09
2022-12-26T05:02:44.168Z,56.17
2022-12-26T05:05:04.462Z,56.18
2022-12-26T05:07:24.541Z,56.56
2022-12-26T05:09:35.037Z,56.33
2022-12-26T05:11:36.401Z,56.75
2022-12-26T05:13:37.702Z,57.04
2022-12-26T05:15:57.910Z,57.45
2022-12-26T05:18:18.169Z,57.19
2022-12-26T05:20:38.025Z,57.41
2022-12-26T05:22:57.748Z,57.64
2022-12-26T05:25:17.787Z,57.29
2022-12-26T05:27:37.682Z,57.54
2022-12-26T05:29:39.160Z,57.69
2022-12-26T05:31:40.563Z,58.02
2022-12-26T05:34:00.581Z,58.04
2022-12-26T05:36:01.885Z,57.37
2022-12-26T05:38:03.186Z,56.92
2022-12-26T05:40:04.491Z,56.71
2022-12-26T05:42:05.836Z,56.76
2022-12-26T05:44:07.145Z,56.56
2022-12-26T05:46:08.489Z,56.50
2022-12-26T05:48:09.854Z,56.52
2022-12-26T05:50:11.142Z,56.64
2022-12-26T05:52:12.480Z,56.41
2022-12-26T05:54:13.799Z,56.52
2022-12-26T05:56:15.176Z,56.25
2022-12-26T05:58:16.488Z,56.37
2022-12-26T06:00:17.796Z,56.36
2022-12-26T06:02:19.187Z,56.42
2022-12-26T06:04:20.527Z,56.49
2022-12-26T06:06:21.866Z,56.68
2022-12-26T06:08:23.155Z,56.68
2022-12-26T06:10:26.889Z,56.87
2022-12-26T06:12:28.183Z,56.68
2022-12-26T06:14:29.497Z,57.16
2022-12-26T06:16:30.845Z,56.76
2022-12-26T06:18:32.195Z,56.82
2022-12-26T06:20:33.620Z,57.15
2022-12-26T06:22:34.945Z,56.85
2022-12-26T06:24:36.247Z,57.59
2022-12-26T06:26:37.899Z,57.27
2022-12-26T06:28:40.290Z,57.49
2022-12-26T06:30:41.601Z,57.49
2022-12-26T06:32:42.918Z,57.48
2022-12-26T06:34:44.223Z,57.42
2022-12-26T06:36:45.551Z,57.33
2022-12-26T06:38:46.903Z,57.55
2022-12-26T06:40:48.225Z,57.56
2022-12-26T06:42:49.568Z,57.69
2022-12-26T06:44:50.862Z,58.06
2022-12-26T06:46:52.333Z,57.97
2022-12-26T06:48:53.797Z,57.89
2022-12-26T06:50:55.464Z,57.45
2022-12-26T06:52:56.775Z,58.02
2022-12-26T06:54:58.919Z,57.36
2022-12-26T06:57:00.213Z,57.87
2022-12-26T06:59:01.515Z,58.04
2022-12-26T07:01:02.901Z,58.08
2022-12-26T07:03:04.272Z,57.93
2022-12-26T07:05:06.260Z,58.16
2022-12-26T07:07:07.589Z,58.18
2022-12-26T07:09:09.493Z,57.89
2022-12-26T07:11:10.930Z,57.97
2022-12-26T07:13:12.234Z,58.07
2022-12-26T07:15:13.531Z,58.26
2022-12-26T07:17:14.831Z,58.14
2022-12-26T07:19:16.188Z,57.65
2022-12-26T07:21:17.588Z,57.50
2022-12-26T07:23:18.887Z,57.63
2022-12-26T07:25:20.219Z,57.78
2022-12-26T07:27:21.526Z,57.83
2022-12-26T07:29:22.987Z,57.68
2022-12-26T07:31:24.356Z,57.53
2022-12-26T07:33:25.680Z,57.55
2022-12-26T07:35:26.990Z,57.57
2022-12-26T07:37:28.282Z,58.12
2022-12-26T07:39:29.638Z,58.17
2022-12-26T07:41:49.604Z,57.85
2022-12-26T07:43:50.934Z,57.76
2022-12-26T07:45:52.304Z,57.76
2022-12-26T07:47:53.661Z,57.79
2022-12-26T07:49:54.959Z,57.96
2022-12-26T07:51:56.302Z,57.81
2022-12-26T07:53:57.675Z,58.05
2022-12-26T07:55:59.004Z,58.29
2022-12-26T07:58:00.347Z,58.54
2022-12-26T08:00:01.703Z,58.24
2022-12-26T08:02:05.137Z,58.62
2022-12-26T08:04:06.589Z,58.31
2022-12-26T08:06:07.927Z,58.23
2022-12-26T08:08:09.413Z,58.40
2022-12-26T08:10:10.712Z,58.74
2022-12-26T08:12:13.643Z,58.81
2022-12-26T08:14:19.355Z,58.87
2022-12-26T08:16:20.716Z,58.67
2022-12-26T08:18:22.093Z,58.60
2022-12-26T08:20:23.391Z,58.93
2022-12-26T08:22:24.718Z,58.71
2022-12-26T08:24:26.015Z,58.50
2022-12-26T08:26:27.338Z,58.23
2022-12-26T08:28:28.673Z,58.32
2022-12-26T08:30:30.008Z,58.11
2022-12-26T08:32:31.295Z,58.41
2022-12-26T08:34:32.615Z,58.09
2022-12-26T08:36:33.957Z,58.02
2022-12-26T08:38:35.255Z,58.58
2022-12-26T08:40:44.631Z,58.45
2022-12-26T08:43:11.779Z,58.38
2022-12-26T08:45:07.443Z,58.29
2022-12-26T08:47:08.757Z,58.10
2022-12-26T08:49:10.110Z,58.29
2022-12-26T08:51:11.464Z,57.55
2022-12-26T08:53:12.775Z,57.81
2022-12-26T08:55:14.117Z,57.97
2022-12-26T08:57:15.895Z,57.99
2022-12-26T08:59:17.248Z,58.05
2022-12-26T09:01:18.721Z,58.15
2022-12-26T09:03:20.153Z,57.88
2022-12-26T09:05:24.281Z,58.21
2022-12-26T09:07:25.573Z,58.21
2022-12-26T09:09:26.871Z,58.04
2022-12-26T09:11:28.702Z,57.92
2022-12-26T09:13:30.027Z,57.87
2022-12-26T09:15:31.348Z,57.31
2022-12-26T09:17:32.700Z,57.30
2022-12-26T09:19:34.042Z,57.41
2022-12-26T09:21:38.289Z,57.27
2022-12-26T09:23:39.611Z,57.62
2022-12-26T09:25:40.914Z,57.76
2022-12-26T09:27:42.718Z,57.65
2022-12-26T09:29:44.132Z,57.56
2022-12-26T09:31:45.476Z,57.48
2022-12-26T09:33:47.547Z,57.27
2022-12-26T09:35:48.884Z,56.98
2022-12-26T09:37:50.205Z,56.89
2022-12-26T09:39:51.511Z,56.11
2022-12-26T09:41:53.153Z,53.38
2022-12-26T09:43:54.436Z,53.22
2022-12-26T09:45:58.707Z,52.81
2022-12-26T09:48:00.103Z,53.83
2022-12-26T09:50:01.691Z,51.85
2022-12-26T09:52:03.059Z,53.31
2022-12-26T09:54:04.374Z,51.84
2022-12-26T09:56:05.681Z,51.40
2022-12-26T09:58:09.882Z,51.21
2022-12-26T10:00:12.258Z,51.22
2022-12-26T10:02:13.672Z,51.60
2022-12-26T10:04:15.111Z,52.03
2022-12-26T10:06:16.445Z,52.28
2022-12-26T10:08:17.778Z,52.60
2022-12-26T10:10:19.075Z,52.23
2022-12-26T10:12:20.404Z,52.66
2022-12-26T10:14:22.224Z,52.52
2022-12-26T10:16:23.640Z,52.63
2022-12-26T10:18:24.993Z,52.64
2022-12-26T10:20:29.081Z,52.68
2022-12-26T10:22:30.611Z,52.67
2022-12-26T10:24:32.235Z,52.76
2022-12-26T10:26:33.558Z,52.88
2022-12-26T10:28:34.867Z,52.73
2022-12-26T10:30:36.168Z,53.14
2022-12-26T10:32:37.470Z,53.27
2022-12-26T10:34:38.775Z,53.26
2022-12-26T10:36:40.083Z,52.95
2022-12-26T10:38:41.427Z,53.29
2022-12-26T10:40:42.752Z,53.40
2022-12-26T10:42:44.052Z,52.99
2022-12-26T10:44:48.133Z,53.41
2022-12-26T10:46:49.836Z,53.28
2022-12-26T10:48:51.189Z,53.60
2022-12-26T10:50:52.535Z,53.35
2022-12-26T10:52:54.147Z,53.58
2022-12-26T10:55:27.057Z,53.38
2022-12-26T10:57:20.211Z,53.48
2022-12-26T10:59:21.545Z,53.68
2022-12-26T11:01:22.925Z,53.57
2022-12-26T11:03:24.369Z,53.80
2022-12-26T11:05:48.897Z,53.76
2022-12-26T11:07:47.029Z,53.78
2022-12-26T11:09:48.469Z,53.43
2022-12-26T11:11:51.647Z,53.83
2022-12-26T11:13:52.965Z,53.49
2022-12-26T11:15:54.297Z,53.77
2022-12-26T11:17:55.669Z,53.87
2022-12-26T11:19:57.720Z,54.00
2022-12-26T11:21:59.089Z,53.89
2022-12-26T11:24:00.387Z,54.03
2022-12-26T11:26:04.663Z,53.82
2022-12-26T11:28:05.969Z,53.86
2022-12-26T11:30:07.271Z,53.73
2022-12-26T11:32:08.608Z,53.76
2022-12-26T11:34:12.638Z,53.55
2022-12-26T11:36:13.945Z,53.84
2022-12-26T11:38:38.992Z,53.84
2022-12-26T11:41:03.986Z,53.69
2022-12-26T11:43:05.338Z,53.96
2022-12-26T11:45:06.636Z,53.88
2022-12-26T11:47:07.977Z,53.62
2022-12-26T11:49:09.270Z,53.85
2022-12-26T11:51:10.646Z,53.63
2022-12-26T11:53:12.938Z,53.72
2022-12-26T11:55:14.229Z,53.67
2022-12-26T11:57:15.569Z,53.68
2022-12-26T11:59:16.891Z,54.03
2022-12-26T12:01:18.299Z,53.92
2022-12-26T12:03:19.713Z,53.92
2022-12-26T12:05:21.053Z,53.88
2022-12-26T12:07:22.354Z,53.87
2022-12-26T12:09:23.647Z,53.95
2022-12-26T12:11:25.001Z,53.68
2022-12-26T12:13:27.306Z,53.81
2022-12-26T12:15:28.650Z,53.70
2022-12-26T12:17:29.979Z,53.89
2022-12-26T12:19:31.289Z,53.93
2022-12-26T12:21:32.645Z,53.85
2022-12-26T12:23:34.007Z,53.96
2022-12-26T12:25:35.811Z,53.57
2022-12-26T12:27:37.104Z,54.06
2022-12-26T12:29:38.434Z,53.71
2022-12-26T12:31:39.806Z,53.53
2022-12-26T12:33:41.121Z,53.58
2022-12-26T12:35:42.527Z,53.98
2022-12-26T12:37:43.861Z,53.69
2022-12-26T12:39:45.217Z,53.92
2022-12-26T12:41:46.577Z,53.97
2022-12-26T12:43:49.097Z,54.02
2022-12-26T12:45:50.440Z,53.75
2022-12-26T12:47:51.834Z,53.97
2022-12-26T12:49:53.183Z,53.81
2022-12-26T12:51:54.510Z,54.13
2022-12-26T12:53:55.853Z,53.80
2022-12-26T12:55:57.146Z,53.98
2022-12-26T12:57:58.677Z,54.12
2022-12-26T13:00:00.111Z,53.90
2022-12-26T13:02:05.592Z,53.99
2022-12-26T13:04:10.454Z,53.97
2022-12-26T13:06:11.761Z,53.89
2022-12-26T13:08:13.072Z,53.79
2022-12-26T13:10:14.370Z,53.83
2022-12-26T13:12:15.670Z,53.73
2022-12-26T13:14:17.432Z,53.64
2022-12-26T13:16:18.767Z,53.75
2022-12-26T13:18:20.078Z,53.71
2022-12-26T13:20:21.383Z,53.51
2022-12-26T13:22:22.724Z,53.30
2022-12-26T13:24:24.039Z,53.33
2022-12-26T13:26:27.037Z,53.79
2022-12-26T13:28:28.449Z,53.45
2022-12-26T13:30:29.783Z,53.54
2022-12-26T13:32:31.086Z,53.28
2022-12-26T13:34:32.540Z,53.65
2022-12-26T13:36:33.875Z,53.55
2022-12-26T13:38:35.211Z,53.89
2022-12-26T13:40:36.545Z,53.90
2022-12-26T13:42:59.559Z,54.07
2022-12-26T13:45:00.842Z,54.23
2022-12-26T13:47:02.179Z,53.97
2022-12-26T13:49:06.276Z,54.09
2022-12-26T13:51:07.699Z,54.06
2022-12-26T13:53:09.041Z,54.12
2022-12-26T13:55:10.376Z,53.57
2022-12-26T13:57:11.734Z,53.67
2022-12-26T13:59:13.079Z,53.95
2022-12-26T14:01:14.492Z,53.35
2022-12-26T14:03:19.037Z,53.55
2022-12-26T14:05:21.305Z,53.60
2022-12-26T14:07:22.607Z,53.56
2022-12-26T14:09:23.953Z,53.25
2022-12-26T14:11:25.280Z,53.25
2022-12-26T14:13:27.755Z,53.55
2022-12-26T14:15:29.681Z,53.34
2022-12-26T14:17:30.982Z,53.41
2022-12-26T14:19:32.267Z,53.31
2022-12-26T14:21:33.822Z,53.57
2022-12-26T14:23:35.286Z,53.23
2022-12-26T14:25:36.573Z,53.41
2022-12-26T14:27:37.956Z,53.31
2022-12-26T14:29:39.251Z,53.33
2022-12-26T14:31:40.566Z,53.54
2022-12-26T14:33:41.877Z,53.62
2022-12-26T14:35:43.221Z,53.45
2022-12-26T14:37:44.579Z,53.51
2022-12-26T14:39:45.884Z,53.51
2022-12-26T14:42:06.048Z,53.45
2022-12-26T14:44:07.439Z,53.43
2022-12-26T14:46:08.748Z,53.43
2022-12-26T14:48:15.818Z,53.24
2022-12-26T14:50:17.205Z,53.39
2022-12-26T14:52:18.603Z,53.62
2022-12-26T14:54:22.183Z,53.57
2022-12-26T14:56:24.888Z,53.47
2022-12-26T14:58:26.301Z,53.55
2022-12-26T15:00:27.640Z,53.61
2022-12-26T15:02:29.105Z,53.58
2022-12-26T15:04:30.565Z,53.50
2022-12-26T15:06:31.946Z,53.32
2022-12-26T15:08:33.258Z,53.40
2022-12-26T15:10:34.554Z,53.79
2022-12-26T15:12:35.934Z,53.20
2022-12-26T15:14:37.242Z,53.52
2022-12-26T15:16:38.565Z,53.51
2022-12-26T15:18:43.150Z,53.74
2022-12-26T15:20:44.763Z,53.33
2022-12-26T15:22:46.115Z,53.73
2022-12-26T15:27:08.789Z,53.55
2022-12-26T15:29:10.183Z,53.67
2022-12-26T15:31:11.611Z,53.25
2022-12-26T15:33:12.972Z,53.38
2022-12-26T15:35:14.271Z,53.36
2022-12-26T15:37:21.705Z,53.31
2022-12-26T15:39:23.126Z,53.27
2022-12-26T15:41:24.501Z,53.33
2022-12-26T15:43:25.850Z,53.20
2022-12-26T15:45:28.621Z,53.65
2022-12-26T15:47:30.144Z,53.41
2022-12-26T15:49:31.868Z,53.70
2022-12-26T15:51:33.154Z,53.66
2022-12-26T15:53:34.580Z,53.37
2022-12-26T15:55:36.004Z,53.59
2022-12-26T15:57:37.323Z,53.62
2022-12-26T15:59:38.805Z,53.51
2022-12-26T16:01:40.253Z,53.62
2022-12-26T16:03:41.764Z,53.54
2022-12-26T16:05:43.323Z,53.15
2022-12-26T16:07:44.738Z,53.53
2022-12-26T16:09:49.848Z,53.52
2022-12-26T16:11:51.231Z,53.15
2022-12-26T16:13:52.565Z,53.48
2022-12-26T16:15:53.922Z,53.20
2022-12-26T16:17:55.223Z,53.49
2022-12-26T16:19:56.610Z,53.33
2022-12-26T16:22:16.706Z,53.02
2022-12-26T16:24:18.021Z,53.53
2022-12-26T16:26:19.531Z,53.39
2022-12-26T16:28:20.990Z,53.47
2022-12-26T16:30:22.368Z,53.30
2022-12-26T16:32:23.810Z,53.52
2022-12-26T16:34:25.162Z,53.40
2022-12-26T16:36:26.484Z,53.21
2022-12-26T16:38:27.773Z,53.16
2022-12-26T16:40:29.085Z,53.00
2022-12-26T16:42:30.437Z,53.31
2022-12-26T16:44:31.819Z,53.51
2022-12-26T16:46:33.154Z,53.25
2022-12-26T16:48:34.478Z,53.24
2022-12-26T16:50:35.810Z,53.39
2022-12-26T16:52:42.077Z,53.40
2022-12-26T16:54:47.414Z,53.43
2022-12-26T16:56:48.749Z,53.05
2022-12-26T16:58:50.061Z,53.31
2022-12-26T17:00:51.603Z,53.39
2022-12-26T17:02:53.054Z,53.40
2022-12-26T17:04:58.436Z,53.28
2022-12-26T17:07:00.060Z,53.06
2022-12-26T17:09:10.143Z,53.30
2022-12-26T17:11:11.519Z,53.25
2022-12-26T17:13:12.818Z,53.11
2022-12-26T17:15:14.143Z,53.32
2022-12-26T17:17:15.433Z,53.24
2022-12-26T17:19:16.727Z,53.59
2022-12-26T17:21:20.710Z,53.49
2022-12-26T17:23:22.062Z,53.52
2022-12-26T17:25:26.368Z,53.34
2022-12-26T17:27:28.263Z,53.25
2022-12-26T17:29:29.607Z,53.17
2022-12-26T17:31:30.978Z,53.50
2022-12-26T17:33:32.332Z,53.00
2022-12-26T17:36:13.504Z,53.14
2022-12-26T17:37:54.885Z,53.12
2022-12-26T17:40:00.906Z,53.12
2022-12-26T17:42:04.252Z,53.33
2022-12-26T17:44:05.566Z,52.98
2022-12-26T17:46:06.928Z,53.14
2022-12-26T17:48:08.275Z,53.61
2022-12-26T17:50:09.607Z,53.20
2022-12-26T17:52:10.938Z,53.21
2022-12-26T17:54:12.220Z,53.35
2022-12-26T17:56:13.554Z,53.19
2022-12-26T17:58:14.931Z,52.96
2022-12-26T18:00:16.263Z,53.14
2022-12-26T18:02:17.699Z,53.31
2022-12-26T18:04:19.316Z,53.43
2022-12-26T18:06:21.885Z,53.04
2022-12-26T18:08:23.295Z,53.48
2022-12-26T18:10:24.630Z,53.27
2022-12-26T18:12:28.651Z,53.24
2022-12-26T18:14:29.952Z,53.37
2022-12-26T18:16:31.356Z,53.13
2022-12-26T18:18:32.743Z,53.33
2022-12-26T18:20:34.082Z,52.93
2022-12-26T18:22:35.488Z,53.12
2022-12-26T18:24:36.836Z,53.01
2022-12-26T18:26:38.159Z,53.03
2022-12-26T18:28:39.514Z,53.20
2022-12-26T18:30:40.920Z,53.33
2022-12-26T18:32:42.351Z,53.50
2022-12-26T18:34:43.642Z,53.66
2022-12-26T18:36:48.011Z,53.83
2022-12-26T18:38:49.308Z,53.69
2022-12-26T18:40:50.696Z,54.07
2022-12-26T18:42:52.022Z,53.75
2022-12-26T18:44:53.354Z,53.76
2022-12-26T18:46:54.677Z,53.89
2022-12-26T18:48:57.444Z,53.73
2022-12-26T18:50:59.048Z,54.13
2022-12-26T18:53:00.391Z,53.60
2022-12-26T18:55:01.735Z,53.25
2022-12-26T18:57:03.030Z,53.48
2022-12-26T18:59:04.492Z,53.06
2022-12-26T19:01:06.235Z,53.41
2022-12-26T19:03:07.663Z,53.48
2022-12-26T19:05:08.954Z,53.33
2022-12-26T19:07:10.252Z,53.36
2022-12-26T19:09:11.562Z,52.93
2022-12-26T19:11:12.890Z,53.00
2022-12-26T19:13:14.238Z,53.25
2022-12-26T19:15:15.542Z,53.06
2022-12-26T19:17:16.888Z,53.50
2022-12-26T19:19:20.953Z,53.11
2022-12-26T19:21:23.254Z,53.31
2022-12-26T19:23:27.674Z,52.84
2022-12-26T19:25:29.013Z,52.39
2022-12-26T19:27:30.325Z,52.21
2022-12-26T19:29:32.870Z,52.37
2022-12-26T19:31:34.213Z,52.50
2022-12-26T19:33:35.582Z,52.32
2022-12-26T19:35:36.926Z,52.97
2022-12-26T19:37:44.031Z,52.98
2022-12-26T19:39:45.335Z,52.73
2022-12-26T19:41:49.350Z,52.74
2022-12-26T19:43:50.645Z,52.28
2022-12-26T19:45:51.953Z,52.21
2022-12-26T19:47:53.499Z,52.23
2022-12-26T19:49:54.794Z,51.93
2022-12-26T19:51:56.083Z,52.02
2022-12-26T19:54:00.730Z,52.61
2022-12-26T19:56:02.023Z,52.52
2022-12-26T19:58:06.039Z,52.33
2022-12-26T20:00:07.634Z,52.56
2022-12-26T20:02:09.237Z,52.91
2022-12-26T20:04:13.743Z,52.60
2022-12-26T20:06:15.082Z,52.86
2022-12-26T20:08:16.403Z,52.62
2022-12-26T20:10:20.633Z,52.49
2022-12-26T20:12:21.960Z,53.62
2022-12-26T20:14:23.300Z,53.46
2022-12-26T20:17:03.216Z,52.62
2022-12-26T20:18:45.907Z,52.23
2022-12-26T20:20:49.852Z,52.23
2022-12-26T20:22:53.128Z,53.08
2022-12-26T20:24:54.762Z,52.45
2022-12-26T20:26:56.063Z,52.73
2022-12-26T20:28:57.356Z,53.75
2022-12-26T20:30:58.716Z,53.58
2022-12-26T20:33:00.115Z,53.36
2022-12-26T20:35:01.423Z,53.80
2022-12-26T20:37:03.119Z,53.94
2022-12-26T20:39:04.432Z,53.84
2022-12-26T20:41:05.773Z,54.31
2022-12-26T20:43:07.078Z,54.16
2022-12-26T20:45:08.411Z,54.16
2022-12-26T20:47:09.801Z,54.12
2022-12-26T20:49:11.143Z,54.46
2022-12-26T20:51:12.430Z,54.87
2022-12-26T20:53:13.801Z,53.60
2022-12-26T20:55:16.452Z,53.68
2022-12-26T20:57:17.793Z,54.34
2022-12-26T20:59:19.186Z,54.49
2022-12-26T21:01:23.641Z,54.62
2022-12-26T21:03:25.112Z,55.11
2022-12-26T21:05:26.479Z,54.39
2022-12-26T21:07:27.880Z,54.25
2022-12-26T21:09:29.193Z,53.89
2022-12-26T21:11:30.532Z,53.26
2022-12-26T21:13:31.867Z,53.28
2022-12-26T21:15:33.165Z,53.45
2022-12-26T21:17:34.516Z,52.97
2022-12-26T21:19:35.802Z,53.56
2022-12-26T21:21:40.555Z,53.05
2022-12-26T21:23:41.911Z,53.27
2022-12-26T21:25:43.218Z,52.85
2022-12-26T21:27:46.457Z,53.30
2022-12-26T21:29:50.715Z,52.75
2022-12-26T21:31:52.028Z,53.25
2022-12-26T21:33:53.372Z,52.73
2022-12-26T21:35:54.920Z,53.52
2022-12-26T21:37:56.278Z,54.41
2022-12-26T21:39:57.574Z,54.02
2022-12-26T21:41:58.887Z,53.45
2022-12-26T21:44:00.216Z,53.47
2022-12-26T21:46:01.632Z,53.84
2022-12-26T21:48:03.002Z,53.44
2022-12-26T21:50:04.350Z,53.94
2022-12-26T21:52:05.660Z,53.63
2022-12-26T21:54:25.892Z,53.69
2022-12-26T21:56:27.237Z,53.68
2022-12-26T21:58:29.294Z,53.94
2022-12-26T22:00:34.995Z,54.32
2022-12-26T22:02:55.004Z,53.53
2022-12-26T22:04:56.484Z,54.29
2022-12-26T22:06:57.787Z,54.17
2022-12-26T22:08:59.153Z,53.78
2022-12-26T22:11:19.274Z,53.81
2022-12-26T22:13:20.564Z,53.67
2022-12-26T22:15:43.730Z,54.35
2022-12-26T22:17:45.071Z,54.35
2022-12-26T22:19:46.361Z,54.35
2022-12-26T22:21:47.671Z,54.30
2022-12-26T22:23:52.033Z,53.97
2022-12-26T22:25:54.022Z,53.67
2022-12-26T22:27:55.316Z,53.83
2022-12-26T22:29:56.618Z,53.70
2022-12-26T22:31:58.918Z,53.27
2022-12-26T22:34:00.235Z,53.76
2022-12-26T22:36:01.527Z,53.13
2022-12-26T22:38:02.831Z,53.97
2022-12-26T22:40:04.180Z,53.55
2022-12-26T22:42:05.510Z,53.75
2022-12-26T22:44:06.865Z,53.67
2022-12-26T22:46:08.226Z,53.27
2022-12-26T22:48:09.556Z,53.33
2022-12-26T22:50:10.895Z,53.37
2022-12-26T22:52:15.907Z,52.72
2022-12-26T22:54:17.454Z,53.00
2022-12-26T22:56:18.742Z,53.08
2022-12-26T22:58:20.031Z,53.01
2022-12-26T23:00:21.346Z,53.44
2022-12-26T23:02:22.904Z,53.49
2022-12-26T23:04:24.320Z,54.03
2022-12-26T23:06:25.738Z,53.23
2022-12-26T23:08:27.073Z,53.43
2022-12-26T23:10:28.433Z,53.79
2022-12-26T23:12:44.965Z,53.83
2022-12-26T23:14:46.295Z,53.63
2022-12-26T23:16:50.645Z,53.95
2022-12-26T23:19:10.479Z,53.61
2022-12-26T23:21:30.505Z,54.08
2022-12-26T23:23:31.866Z,54.97
2022-12-26T23:25:33.161Z,54.78
2022-12-26T23:27:53.190Z,54.04
2022-12-26T23:30:13.402Z,54.57
2022-12-26T23:32:14.702Z,54.25
2022-12-26T23:34:18.830Z,53.99
2022-12-26T23:36:20.155Z,54.21
2022-12-26T23:38:21.451Z,54.92
2022-12-26T23:40:22.846Z,55.12
2022-12-26T23:42:24.149Z,55.53
2022-12-26T23:44:25.434Z,55.24
2022-12-26T23:46:26.837Z,55.01
2022-12-26T23:48:28.147Z,55.43
2022-12-26T23:50:29.511Z,55.41
2022-12-26T23:52:30.854Z,55.32
2022-12-26T23:54:32.189Z,54.87
2022-12-26T23:56:33.541Z,54.91
2022-12-26T23:58:34.908Z,54.45
